Terminal Aerodrome Forecast
Issued by NWS Indianapolis, IN

Home | Current Version | Previous Version | Text Only | Print | Product List | Glossary On
Versions: 1 2 3 4 5 6 7 8 9 10 11 12 13 14 15 16 17 18 19 20 21 22 23
000
FTUS43 KIND 210830 AAB
TAFIND
TAF AMD
KIND 210830Z 2109/2212 19005KT P6SM FEW040 SCT120
     FM211600 22008KT P6SM FEW040 SCT250
     FM211900 23008KT P6SM VCTS SCT040CB BKN250
     FM212300 21007KT P6SM FEW040 SCT250=

USA.gov is the U.S. government's official web portal to all federal, state and local government web resources and services.